sensor_id;sensor_type;location;lat;lon;timestamp;pressure;altitude;pressure_sealevel;temperature;humidity
9189;BME280;34313;50.780;6.084;2023-01-27T00:00:04;100160.81;;;3.75;100.00
9189;BME280;34313;50.780;6.084;2023-01-27T00:02:30;100153.00;;;3.73;100.00
9189;BME280;34313;50.780;6.084;2023-01-27T00:04:56;100156.50;;;3.74;100.00
9189;BME280;34313;50.780;6.084;2023-01-27T00:07:21;100154.69;;;3.77;100.00
9189;BME280;34313;50.780;6.084;2023-01-27T00:09:46;100152.09;;;3.76;100.00
9189;BME280;34313;50.780;6.084;2023-01-27T00:12:19;100154.66;;;3.79;100.00
9189;BME280;34313;50.780;6.084;2023-01-27T00:15:04;100153.78;;;3.78;100.00
9189;BME280;34313;50.780;6.084;2023-01-27T00:17:30;100151.19;;;3.78;100.00
9189;BME280;34313;50.780;6.084;2023-01-27T00:19:56;100154.78;;;3.71;100.00
9189;BME280;34313;50.780;6.084;2023-01-27T00:22:21;100160.75;;;3.78;100.00
9189;BME280;34313;50.780;6.084;2023-01-27T00:25:05;100159.09;;;3.74;100.00
9189;BME280;34313;50.780;6.084;2023-01-27T00:27:31;100167.66;;;3.81;100.00
9189;BME280;34313;50.780;6.084;2023-01-27T00:29:56;100153.00;;;3.73;100.00
9189;BME280;34313;50.780;6.084;2023-01-27T00:32:21;100155.69;;;3.70;100.00
9189;BME280;34313;50.780;6.084;2023-01-27T00:35:05;100163.50;;;3.72;100.00
9189;BME280;34313;50.780;6.084;2023-01-27T00:37:31;100160.88;;;3.72;100.00
9189;BME280;34313;50.780;6.084;2023-01-27T00:39:56;100155.50;;;3.79;100.00
9189;BME280;34313;50.780;6.084;2023-01-27T00:42:22;100158.16;;;3.78;100.00
9189;BME280;34313;50.780;6.084;2023-01-27T00:44:47;100154.75;;;3.74;100.00
9189;BME280;34313;50.780;6.084;2023-01-27T00:47:31;100157.25;;;3.81;100.00
9189;BME280;34313;50.780;6.084;2023-01-27T00:49:56;100163.44;;;3.73;100.00
9189;BME280;34313;50.780;6.084;2023-01-27T00:52:21;100162.63;;;3.71;100.00
9189;BME280;34313;50.780;6.084;2023-01-27T00:54:47;100167.16;;;3.62;100.00
9189;BME280;34313;50.780;6.084;2023-01-27T00:57:12;100154.09;;;3.65;100.00
9189;BME280;34313;50.780;6.084;2023-01-27T00:59:37;100161.78;;;3.69;100.00
9189;BME280;34313;50.780;6.084;2023-01-27T01:02:03;100157.50;;;3.68;100.00
9189;BME280;34313;50.780;6.084;2023-01-27T01:04:28;100165.19;;;3.73;100.00
9189;BME280;34313;50.780;6.084;2023-01-27T01:06:53;100163.41;;;3.75;100.00
9189;BME280;34313;50.780;6.084;2023-01-27T01:09:19;100166.94;;;3.72;100.00
9189;BME280;34313;50.780;6.084;2023-01-27T01:11:44;100163.44;;;3.73;100.00
9189;BME280;34313;50.780;6.084;2023-01-27T01:14:09;100174.00;;;3.67;100.00
9189;BME280;34313;50.780;6.084;2023-01-27T01:16:35;100181.22;;;3.53;100.00
9189;BME280;34313;50.780;6.084;2023-01-27T01:19:00;100181.19;;;3.56;100.00
9189;BME280;34313;50.780;6.084;2023-01-27T01:21:25;100164.91;;;3.41;100.00
9189;BME280;34313;50.780;6.084;2023-01-27T01:23:50;100190.84;;;3.49;100.00
9189;BME280;34313;50.780;6.084;2023-01-27T01:26:16;100182.22;;;3.46;100.00
9189;BME280;34313;50.780;6.084;2023-01-27T01:28:43;100185.75;;;3.41;100.00
9189;BME280;34313;50.780;6.084;2023-01-27T01:31:11;100184.03;;;3.42;100.00
9189;BME280;34313;50.780;6.084;2023-01-27T01:33:37;100192.63;;;3.47;100.00
9189;BME280;34313;50.780;6.084;2023-01-27T01:36:04;100194.47;;;3.42;100.00
9189;BME280;34313;50.780;6.084;2023-01-27T01:38:30;100198.00;;;3.36;100.00
9189;BME280;34313;50.780;6.084;2023-01-27T01:40:55;100197.94;;;3.41;100.00
9189;BME280;34313;50.780;6.084;2023-01-27T01:43:20;100195.41;;;3.36;100.00
9189;BME280;34313;50.780;6.084;2023-01-27T01:45:54;100192.72;;;3.41;100.00
9189;BME280;34313;50.780;6.084;2023-01-27T01:50:55;100205.09;;;3.30;100.00
9189;BME280;34313;50.780;6.084;2023-01-27T01:53:24;100200.75;;;3.29;100.00
9189;BME280;34313;50.780;6.084;2023-01-27T01:55:55;100197.31;;;3.27;100.00
9189;BME280;34313;50.780;6.084;2023-01-27T01:58:21;100203.31;;;3.32;100.00
9189;BME280;34313;50.780;6.084;2023-01-27T02:00:47;100199.94;;;3.27;100.00
9189;BME280;34313;50.780;6.084;2023-01-27T02:03:12;100205.16;;;3.27;100.00
9189;BME280;34313;50.780;6.084;2023-01-27T02:05:42;100199.09;;;3.26;100.00
9189;BME280;34313;50.780;6.084;2023-01-27T02:08:18;100191.34;;;3.21;100.00
9189;BME280;34313;50.780;6.084;2023-01-27T02:10:44;100193.97;;;3.20;100.00
9189;BME280;34313;50.780;6.084;2023-01-27T02:13:10;100201.81;;;3.17;100.00
9189;BME280;34313;50.780;6.084;2023-01-27T02:15:36;100195.78;;;3.15;100.00
9189;BME280;34313;50.780;6.084;2023-01-27T02:18:02;100193.09;;;3.21;100.00
9189;BME280;34313;50.780;6.084;2023-01-27T02:20:50;100196.53;;;3.23;100.00
9189;BME280;34313;50.780;6.084;2023-01-27T02:29:14;100188.66;;;3.26;100.00
9189;BME280;34313;50.780;6.084;2023-01-27T02:31:40;100190.41;;;3.24;100.00
9189;BME280;34313;50.780;6.084;2023-01-27T02:34:10;100194.84;;;3.19;100.00
9189;BME280;34313;50.780;6.084;2023-01-27T02:36:47;100199.16;;;3.20;100.00
9189;BME280;34313;50.780;6.084;2023-01-27T02:39:16;100196.59;;;3.18;100.00
9189;BME280;34313;50.780;6.084;2023-01-27T02:41:44;100195.63;;;3.22;100.00
9189;BME280;34313;50.780;6.084;2023-01-27T02:44:12;100193.91;;;3.25;100.00
9189;BME280;34313;50.780;6.084;2023-01-27T02:46:37;100206.94;;;3.23;100.00
9189;BME280;34313;50.780;6.084;2023-01-27T02:49:03;100199.97;;;3.25;100.00
9189;BME280;34313;50.780;6.084;2023-01-27T02:51:28;100199.94;;;3.27;100.00
9189;BME280;34313;50.780;6.084;2023-01-27T02:53:54;100195.41;;;3.36;100.00
9189;BME280;34313;50.780;6.084;2023-01-27T02:56:21;100195.47;;;3.33;100.00
9189;BME280;34313;50.780;6.084;2023-01-27T02:58:46;100192.06;;;3.30;100.00
9189;BME280;34313;50.780;6.084;2023-01-27T03:01:12;100191.13;;;3.34;100.00
9189;BME280;34313;50.780;6.084;2023-01-27T03:03:37;100192.78;;;3.38;100.00
9189;BME280;34313;50.780;6.084;2023-01-27T03:06:09;100190.28;;;3.33;100.00
9189;BME280;34313;50.780;6.084;2023-01-27T03:08:34;100189.47;;;3.30;100.00
9189;BME280;34313;50.780;6.084;2023-01-27T03:10:59;100195.47;;;3.35;100.00
9189;BME280;34313;50.780;6.084;2023-01-27T03:13:25;100199.94;;;3.27;100.00
9189;BME280;34313;50.780;6.084;2023-01-27T03:15:52;100197.34;;;3.25;100.00
9189;BME280;34313;50.780;6.084;2023-01-27T03:18:36;100195.81;;;3.13;100.00
9189;BME280;34313;50.780;6.084;2023-01-27T03:21:04;100201.31;;;2.95;100.00
9189;BME280;34313;50.780;6.084;2023-01-27T03:23:30;100199.94;;;2.71;100.00
9189;BME280;34313;50.780;6.084;2023-01-27T03:25:59;100206.03;;;2.68;100.00
9189;BME280;34313;50.780;6.084;2023-01-27T03:28:25;100202.59;;;2.68;100.00
9189;BME280;34313;50.780;6.084;2023-01-27T03:30:50;100195.72;;;2.63;100.00
9189;BME280;34313;50.780;6.084;2023-01-27T03:33:15;100200.81;;;2.71;100.00
9189;BME280;34313;50.780;6.084;2023-01-27T03:35:41;100209.56;;;2.67;100.00
9189;BME280;34313;50.780;6.084;2023-01-27T03:38:13;100194.78;;;2.68;100.00
9189;BME280;34313;50.780;6.084;2023-01-27T03:40:57;100206.75;;;2.79;100.00
9189;BME280;34313;50.780;6.084;2023-01-27T03:43:41;100200.00;;;2.68;100.00
9189;BME280;34313;50.780;6.084;2023-01-27T03:46:25;100208.56;;;2.74;100.00
9189;BME280;34313;50.780;6.084;2023-01-27T03:48:53;100211.13;;;2.77;100.00
9189;BME280;34313;50.780;6.084;2023-01-27T03:51:21;100218.13;;;2.74;100.00
9189;BME280;34313;50.780;6.084;2023-01-27T03:53:46;100220.09;;;2.58;100.00
9189;BME280;34313;50.780;6.084;2023-01-27T03:56:12;100224.25;;;2.70;100.00
9189;BME280;34313;50.780;6.084;2023-01-27T03:58:38;100209.44;;;2.75;100.00
9189;BME280;34313;50.780;6.084;2023-01-27T04:01:13;100219.84;;;2.73;100.00
9189;BME280;34313;50.780;6.084;2023-01-27T04:03:39;100220.84;;;2.64;100.00
9189;BME280;34313;50.780;6.084;2023-01-27T04:06:25;100224.25;;;2.68;100.00
9189;BME280;34313;50.780;6.084;2023-01-27T04:09:13;100227.91;;;2.58;100.00
9189;BME280;34313;50.780;6.084;2023-01-27T04:11:41;100223.63;;;2.52;100.00
9189;BME280;34313;50.780;6.084;2023-01-27T04:14:22;100229.75;;;2.50;100.00
9189;BME280;34313;50.780;6.084;2023-01-27T04:16:52;100236.78;;;2.40;100.00
9189;BME280;34313;50.780;6.084;2023-01-27T04:19:18;100248.09;;;2.39;100.00
9189;BME280;34313;50.780;6.084;2023-01-27T04:21:44;100245.50;;;2.40;100.00
9189;BME280;34313;50.780;6.084;2023-01-27T04:24:14;100248.81;;;2.49;100.00
9189;BME280;34313;50.780;6.084;2023-01-27T04:26:51;100248.19;;;2.30;100.00
9189;BME280;34313;50.780;6.084;2023-01-27T04:29:19;100247.34;;;2.29;100.00
9189;BME280;34313;50.780;6.084;2023-01-27T04:31:45;100247.50;;;2.15;100.00
9189;BME280;34313;50.780;6.084;2023-01-27T04:34:11;100258.00;;;2.09;100.00
9189;BME280;34313;50.780;6.084;2023-01-27T04:36:37;100263.06;;;2.21;100.00
9189;BME280;34313;50.780;6.084;2023-01-27T04:39:02;100255.34;;;2.12;100.00
9189;BME280;34313;50.780;6.084;2023-01-27T04:41:28;100251.84;;;2.16;100.00
9189;BME280;34313;50.780;6.084;2023-01-27T04:43:53;100266.38;;;2.33;100.00
9189;BME280;34313;50.780;6.084;2023-01-27T04:46:18;100279.50;;;2.23;100.00
9189;BME280;34313;50.780;6.084;2023-01-27T04:48:44;100278.81;;;2.06;100.00
9189;BME280;34313;50.780;6.084;2023-01-27T04:51:09;100272.75;;;2.07;100.00
9189;BME280;34313;50.780;6.084;2023-01-27T04:53:34;100273.75;;;1.95;100.00
9189;BME280;34313;50.780;6.084;2023-01-27T04:56:05;100278.13;;;1.90;100.00
9189;BME280;34313;50.780;6.084;2023-01-27T04:58:31;100273.75;;;1.97;100.00
9189;BME280;34313;50.780;6.084;2023-01-27T05:00:57;100285.97;;;1.84;100.00
9189;BME280;34313;50.780;6.084;2023-01-27T05:03:22;100286.03;;;1.82;100.00
9189;BME280;34313;50.780;6.084;2023-01-27T05:05:47;100288.63;;;1.81;100.00
9189;BME280;34313;50.780;6.084;2023-01-27T05:08:13;100284.25;;;1.84;100.00
9189;BME280;34313;50.780;6.084;2023-01-27T05:10:38;100286.72;;;1.97;100.00
9189;BME280;34313;50.780;6.084;2023-01-27T05:13:03;100291.13;;;1.92;100.00
9189;BME280;34313;50.780;6.084;2023-01-27T05:15:29;100285.03;;;1.93;100.00
9189;BME280;34313;50.780;6.084;2023-01-27T05:17:54;100294.56;;;1.94;100.00
9189;BME280;34313;50.780;6.084;2023-01-27T05:20:20;100288.44;;;1.96;100.00
9189;BME280;34313;50.780;6.084;2023-01-27T05:22:45;100292.00;;;1.87;100.00
9189;BME280;34313;50.780;6.084;2023-01-27T05:25:11;100291.97;;;1.92;100.00
9189;BME280;34313;50.780;6.084;2023-01-27T05:27:37;100286.78;;;1.92;100.00
9189;BME280;34313;50.780;6.084;2023-01-27T05:30:02;100294.47;;;2.00;100.00
9189;BME280;34313;50.780;6.084;2023-01-27T05:32:28;100288.38;;;2.07;100.00
9189;BME280;34313;50.780;6.084;2023-01-27T05:34:53;100290.09;;;2.06;100.00
9189;BME280;34313;50.780;6.084;2023-01-27T05:37:19;100296.22;;;2.01;100.00
9189;BME280;34313;50.780;6.084;2023-01-27T05:39:44;100295.22;;;2.14;100.00
9189;BME280;34313;50.780;6.084;2023-01-27T05:42:09;100297.00;;;2.07;100.00
9189;BME280;34313;50.780;6.084;2023-01-27T05:44:35;100308.25;;;2.11;100.00
9189;BME280;34313;50.780;6.084;2023-01-27T05:47:00;100298.81;;;2.01;100.00
9189;BME280;34313;50.780;6.084;2023-01-27T05:49:26;100293.56;;;2.07;100.00
9189;BME280;34313;50.780;6.084;2023-01-27T05:51:51;100297.03;;;2.04;100.00
9189;BME280;34313;50.780;6.084;2023-01-27T05:54:16;100303.16;;;2.02;100.00
9189;BME280;34313;50.780;6.084;2023-01-27T05:56:42;100301.41;;;2.02;100.00
9189;BME280;34313;50.780;6.084;2023-01-27T05:59:09;100307.53;;;1.98;100.00
9189;BME280;34313;50.780;6.084;2023-01-27T06:01:34;100297.97;;;1.99;100.00
9189;BME280;34313;50.780;6.084;2023-01-27T06:04:02;100299.72;;;1.97;100.00
9189;BME280;34313;50.780;6.084;2023-01-27T06:06:30;100297.91;;;2.05;100.00
9189;BME280;34313;50.780;6.084;2023-01-27T06:08:56;100296.94;;;2.14;100.00
9189;BME280;34313;50.780;6.084;2023-01-27T06:11:22;100299.63;;;2.04;100.00
9189;BME280;34313;50.780;6.084;2023-01-27T06:13:48;100303.91;;;2.08;100.00
9189;BME280;34313;50.780;6.084;2023-01-27T06:16:16;100302.13;;;2.15;100.00
9189;BME280;34313;50.780;6.084;2023-01-27T06:18:43;100305.56;;;2.19;100.00
9189;BME280;34313;50.780;6.084;2023-01-27T06:21:10;100304.66;;;2.21;100.00
9189;BME280;34313;50.780;6.084;2023-01-27T06:23:36;100306.38;;;2.21;100.00
9189;BME280;34313;50.780;6.084;2023-01-27T06:26:07;100286.41;;;2.26;100.00
9189;BME280;34313;50.780;6.084;2023-01-27T06:28:34;100288.97;;;2.27;100.00
9189;BME280;34313;50.780;6.084;2023-01-27T06:31:14;100300.19;;;2.34;100.00
9189;BME280;34313;50.780;6.084;2023-01-27T06:33:39;100303.56;;;2.42;100.00
9189;BME280;34313;50.780;6.084;2023-01-27T06:36:07;100313.06;;;2.45;100.00
9189;BME280;34313;50.780;6.084;2023-01-27T06:38:33;100309.59;;;2.46;100.00
9189;BME280;34313;50.780;6.084;2023-01-27T06:40:59;100306.97;;;2.46;100.00
9189;BME280;34313;50.780;6.084;2023-01-27T06:43:25;100310.41;;;2.51;100.00
9189;BME280;34313;50.780;6.084;2023-01-27T06:45:51;100314.00;;;2.39;100.00
9189;BME280;34313;50.780;6.084;2023-01-27T06:48:16;100318.34;;;2.39;100.00
9189;BME280;34313;50.780;6.084;2023-01-27T06:50:42;100321.66;;;2.50;100.00
9189;BME280;34313;50.780;6.084;2023-01-27T06:53:07;100323.56;;;2.39;100.00
9189;BME280;34313;50.780;6.084;2023-01-27T06:55:34;100329.75;;;2.27;100.00
9189;BME280;34313;50.780;6.084;2023-01-27T06:58:05;100327.16;;;2.27;100.00
9189;BME280;34313;50.780;6.084;2023-01-27T07:00:30;100319.28;;;2.33;100.00
9189;BME280;34313;50.780;6.084;2023-01-27T07:02:56;100317.47;;;2.38;100.00
9189;BME280;34313;50.780;6.084;2023-01-27T07:05:21;100330.53;;;2.35;100.00
9189;BME280;34313;50.780;6.084;2023-01-27T07:07:47;100335.88;;;2.21;100.00
9189;BME280;34313;50.780;6.084;2023-01-27T07:10:12;100334.94;;;2.27;100.00
9189;BME280;34313;50.780;6.084;2023-01-27T07:12:37;100339.19;;;2.34;100.00
9189;BME280;34313;50.780;6.084;2023-01-27T07:15:04;100339.19;;;2.36;100.00
9189;BME280;34313;50.780;6.084;2023-01-27T07:17:30;100340.97;;;2.32;100.00
9189;BME280;34313;50.780;6.084;2023-01-27T07:19:56;100345.19;;;2.41;100.00
9189;BME280;34313;50.780;6.084;2023-01-27T07:22:21;100344.53;;;2.20;100.00
9189;BME280;34313;50.780;6.084;2023-01-27T07:24:46;100350.66;;;2.16;100.00
9189;BME280;34313;50.780;6.084;2023-01-27T07:27:12;100355.75;;;2.27;100.00
9189;BME280;34313;50.780;6.084;2023-01-27T07:29:37;100355.72;;;2.32;100.00
9189;BME280;34313;50.780;6.084;2023-01-27T07:32:02;100355.72;;;2.32;100.00
9189;BME280;34313;50.780;6.084;2023-01-27T07:34:27;100357.44;;;2.30;100.00
9189;BME280;34313;50.780;6.084;2023-01-27T07:36:53;100358.38;;;2.25;100.00
9189;BME280;34313;50.780;6.084;2023-01-27T07:39:18;100360.91;;;2.33;100.00
9189;BME280;34313;50.780;6.084;2023-01-27T07:41:44;100356.59;;;2.29;100.00
9189;BME280;34313;50.780;6.084;2023-01-27T07:44:11;100360.97;;;2.25;100.00
9189;BME280;34313;50.780;6.084;2023-01-27T07:46:37;100363.53;;;2.29;100.00
9189;BME280;34313;50.780;6.084;2023-01-27T07:49:02;100360.78;;;2.45;100.00
9189;BME280;34313;50.780;6.084;2023-01-27T07:51:27;100354.78;;;2.37;100.00
9189;BME280;34313;50.780;6.084;2023-01-27T07:53:53;100362.63;;;2.31;100.00
9189;BME280;34313;50.780;6.084;2023-01-27T07:56:18;100355.66;;;2.35;100.00
9189;BME280;34313;50.780;6.084;2023-01-27T07:58:43;100359.03;;;2.46;100.00
9189;BME280;34313;50.780;6.084;2023-01-27T08:01:11;100359.00;;;2.48;100.00
9189;BME280;34313;50.780;6.084;2023-01-27T08:03:37;100360.78;;;2.45;100.00
9189;BME280;34313;50.780;6.084;2023-01-27T08:06:07;100360.78;;;2.42;100.00
9189;BME280;34313;50.780;6.084;2023-01-27T08:08:33;100365.94;;;2.47;100.00
9189;BME280;34313;50.780;6.084;2023-01-27T08:11:00;100360.69;;;2.50;100.00
9189;BME280;34313;50.780;6.084;2023-01-27T08:13:26;100362.41;;;2.54;100.00
9189;BME280;34313;50.780;6.084;2023-01-27T08:15:58;100357.09;;;2.63;100.00
9189;BME280;34313;50.780;6.084;2023-01-27T08:18:24;100359.72;;;2.62;100.00
9189;BME280;34313;50.780;6.084;2023-01-27T08:20:51;100366.59;;;2.64;100.00
9189;BME280;34313;50.780;6.084;2023-01-27T08:23:18;100357.97;;;2.59;100.00
9189;BME280;34313;50.780;6.084;2023-01-27T08:25:56;100356.34;;;2.52;100.00
9189;BME280;34313;50.780;6.084;2023-01-27T08:28:24;100356.97;;;2.71;100.00
9189;BME280;34313;50.780;6.084;2023-01-27T08:30:50;100359.59;;;2.70;100.00
9189;BME280;34313;50.780;6.084;2023-01-27T08:33:18;100364.06;;;2.60;100.00
9189;BME280;34313;50.780;6.084;2023-01-27T08:35:44;100368.41;;;2.59;100.00
9189;BME280;34313;50.780;6.084;2023-01-27T08:38:10;100359.69;;;2.63;100.00
9189;BME280;34313;50.780;6.084;2023-01-27T08:40:38;100380.47;;;2.67;100.00
9189;BME280;34313;50.780;6.084;2023-01-27T08:43:04;100367.41;;;2.68;100.00
9189;BME280;34313;50.780;6.084;2023-01-27T08:45:29;100372.53;;;2.79;100.00
9189;BME280;34313;50.780;6.084;2023-01-27T08:47:54;100374.16;;;2.86;100.00
9189;BME280;34313;50.780;6.084;2023-01-27T08:50:19;100361.13;;;2.88;100.00
9189;BME280;34313;50.780;6.084;2023-01-27T08:52:45;100370.66;;;2.87;100.00
9189;BME280;34313;50.780;6.084;2023-01-27T08:55:10;100373.34;;;2.81;100.00
9189;BME280;34313;50.780;6.084;2023-01-27T08:57:36;100363.78;;;2.83;100.00
9189;BME280;34313;50.780;6.084;2023-01-27T09:00:03;100370.59;;;2.95;100.00
9189;BME280;34313;50.780;6.084;2023-01-27T09:02:29;100367.19;;;2.90;100.00
9189;BME280;34313;50.780;6.084;2023-01-27T09:04:54;100375.00;;;2.88;100.00
9189;BME280;34313;50.780;6.084;2023-01-27T09:07:19;100379.28;;;2.91;100.00
9189;BME280;34313;50.780;6.084;2023-01-27T09:09:46;100378.38;;;2.96;100.00
9189;BME280;34313;50.780;6.084;2023-01-27T09:12:11;100373.34;;;2.82;100.00
9189;BME280;34313;50.780;6.084;2023-01-27T09:14:37;100382.81;;;2.90;100.00
9189;BME280;34313;50.780;6.084;2023-01-27T09:17:02;100380.22;;;2.88;100.00
9189;BME280;34313;50.780;6.084;2023-01-27T09:19:27;100382.69;;;2.97;100.00
9189;BME280;34313;50.780;6.084;2023-01-27T09:21:53;100382.59;;;3.05;100.00
9189;BME280;34313;50.780;6.084;2023-01-27T09:24:18;100390.41;;;3.05;100.00
9189;BME280;34313;50.780;6.084;2023-01-27T09:26:44;100386.88;;;3.09;100.00
9189;BME280;34313;50.780;6.084;2023-01-27T09:29:10;100388.53;;;3.16;100.00
9189;BME280;34313;50.780;6.084;2023-01-27T09:31:36;100391.97;;;3.17;100.00
9189;BME280;34313;50.780;6.084;2023-01-27T09:34:01;100387.72;;;3.11;100.00
9189;BME280;34313;50.780;6.084;2023-01-27T09:36:28;100390.22;;;3.19;100.00
9189;BME280;34313;50.780;6.084;2023-01-27T09:39:00;100394.44;;;3.28;100.00
9189;BME280;34313;50.780;6.084;2023-01-27T09:52:57;100400.84;;;3.03;100.00
9189;BME280;34313;50.780;6.084;2023-01-27T09:58:20;100411.81;;;3.27;100.00
9189;BME280;34313;50.780;6.084;2023-01-27T10:15:29;100403.22;;;3.20;100.00
9189;BME280;34313;50.780;6.084;2023-01-27T10:23:45;100406.59;;;3.29;100.00
9189;BME280;34313;50.780;6.084;2023-01-27T10:26:41;100402.06;;;3.40;100.00
9189;BME280;34313;50.780;6.084;2023-01-27T10:29:12;100418.84;;;3.20;100.00
9189;BME280;34313;50.780;6.084;2023-01-27T10:31:55;100419.63;;;3.29;100.00
9189;BME280;34313;50.780;6.084;2023-01-27T10:34:27;100412.59;;;3.34;100.00
9189;BME280;34313;50.780;6.084;2023-01-27T10:37:35;100419.56;;;3.33;100.00
9189;BME280;34313;50.780;6.084;2023-01-27T10:42:44;100413.25;;;3.50;100.00
9189;BME280;34313;50.780;6.084;2023-01-27T10:45:37;100416.69;;;3.50;100.00
9189;BME280;34313;50.780;6.084;2023-01-27T10:48:24;100410.84;;;3.34;100.00
9189;BME280;34313;50.780;6.084;2023-01-27T10:51:17;100408.06;;;3.47;100.00
9189;BME280;34313;50.780;6.084;2023-01-27T10:54:07;100410.59;;;3.53;100.00
9189;BME280;34313;50.780;6.084;2023-01-27T10:56:54;100412.13;;;3.66;100.00
9189;BME280;34313;50.780;6.084;2023-01-27T10:59:44;100405.25;;;3.60;100.00
9189;BME280;34313;50.780;6.084;2023-01-27T11:04:59;100406.34;;;3.47;100.00
9189;BME280;34313;50.780;6.084;2023-01-27T11:07:27;100416.59;;;3.59;100.00
9189;BME280;34313;50.780;6.084;2023-01-27T11:10:02;100408.66;;;3.64;100.00
9189;BME280;34313;50.780;6.084;2023-01-27T11:12:33;100407.59;;;3.77;100.00
9189;BME280;34313;50.780;6.084;2023-01-27T11:15:01;100410.25;;;3.76;100.00
9189;BME280;34313;50.780;6.084;2023-01-27T11:17:41;100402.56;;;3.67;100.00
9189;BME280;34313;50.780;6.084;2023-01-27T11:23:30;100396.47;;;3.66;100.00
9189;BME280;34313;50.780;6.084;2023-01-27T11:29:13;100395.53;;;3.72;100.00
9189;BME280;34313;50.780;6.084;2023-01-27T11:36:49;100394.63;;;3.74;100.00
9189;BME280;34313;50.780;6.084;2023-01-27T11:39:16;100388.72;;;3.63;100.00
9189;BME280;34313;50.780;6.084;2023-01-27T11:41:46;100391.13;;;3.77;100.00
9189;BME280;34313;50.780;6.084;2023-01-27T11:44:18;100386.72;;;3.81;100.00
9189;BME280;34313;50.780;6.084;2023-01-27T11:46:46;100378.91;;;3.79;100.00
9189;BME280;34313;50.780;6.084;2023-01-27T11:49:21;100382.41;;;3.76;100.00
9189;BME280;34313;50.780;6.084;2023-01-27T11:51:48;100386.72;;;3.81;100.00
9189;BME280;34313;50.780;6.084;2023-01-27T11:54:20;100374.53;;;3.81;100.00
9189;BME280;34313;50.780;6.084;2023-01-27T11:56:48;100377.97;;;3.82;100.00
9189;BME280;34313;50.780;6.084;2023-01-27T11:59:28;100383.00;;;3.94;100.00
9189;BME280;34313;50.780;6.084;2023-01-27T12:02:07;100376.06;;;3.94;100.00
9189;BME280;34313;50.780;6.084;2023-01-27T12:07:51;100373.22;;;4.07;100.00
9189;BME280;34313;50.780;6.084;2023-01-27T12:09:57;100372.50;;;3.97;100.00
9189;BME280;34313;50.780;6.084;2023-01-27T12:12:25;100383.00;;;3.92;100.00
9189;BME280;34313;50.780;6.084;2023-01-27T12:14:56;100381.41;;;3.84;100.00
9189;BME280;34313;50.780;6.084;2023-01-27T12:17:42;100382.38;;;3.78;100.00
9189;BME280;34313;50.780;6.084;2023-01-27T12:23:00;100373.56;;;3.85;100.00
9189;BME280;34313;50.780;6.084;2023-01-27T12:25:30;100375.41;;;3.78;100.00
9189;BME280;34313;50.780;6.084;2023-01-27T12:27:58;100358.09;;;3.76;100.00
9189;BME280;34313;50.780;6.084;2023-01-27T12:30:32;100366.78;;;3.75;100.00
9189;BME280;34313;50.780;6.084;2023-01-27T12:32:59;100358.88;;;3.81;100.00
9189;BME280;34313;50.780;6.084;2023-01-27T12:35:35;100359.53;;;3.92;100.00
9189;BME280;34313;50.780;6.084;2023-01-27T12:38:34;100363.81;;;3.98;100.00
9189;BME280;34313;50.780;6.084;2023-01-27T12:41:03;100359.53;;;3.92;100.00
9189;BME280;34313;50.780;6.084;2023-01-27T12:43:30;100355.19;;;3.94;100.00
9189;BME280;34313;50.780;6.084;2023-01-27T12:48:29;100341.09;;;4.03;100.00
9189;BME280;34313;50.780;6.084;2023-01-27T12:51:04;100345.44;;;4.04;100.00
9189;BME280;34313;50.780;6.084;2023-01-27T12:53:30;100346.22;;;4.09;100.00
9189;BME280;34313;50.780;6.084;2023-01-27T13:01:27;100337.59;;;4.04;100.00
9189;BME280;34313;50.780;6.084;2023-01-27T13:04:04;100342.00;;;4.01;100.00
9189;BME280;34313;50.780;6.084;2023-01-27T13:07:07;100341.88;;;4.08;100.00
9189;BME280;34313;50.780;6.084;2023-01-27T13:09:59;100340.22;;;4.03;100.00
9189;BME280;34313;50.780;6.084;2023-01-27T13:15:16;100351.44;;;4.08;100.00
9189;BME280;34313;50.780;6.084;2023-01-27T13:17:53;100341.00;;;4.09;100.00
9189;BME280;34313;50.780;6.084;2023-01-27T13:20:22;100343.25;;;3.79;100.00
9189;BME280;34313;50.780;6.084;2023-01-27T13:22:58;100344.25;;;3.72;100.00
9189;BME280;34313;50.780;6.084;2023-01-27T13:26:03;100350.00;;;3.91;100.00
9189;BME280;34313;50.780;6.084;2023-01-27T13:28:51;100351.03;;;3.83;100.00
9189;BME280;34313;50.780;6.084;2023-01-27T13:39:17;100367.56;;;3.80;100.00
9189;BME280;34313;50.780;6.084;2023-01-27T13:42:01;100357.09;;;3.83;100.00
9189;BME280;34313;50.780;6.084;2023-01-27T13:44:54;100365.88;;;3.79;100.00
9189;BME280;34313;50.780;6.084;2023-01-27T13:47:28;100365.94;;;3.74;100.00
9189;BME280;34313;50.780;6.084;2023-01-27T13:51:00;100374.53;;;3.79;100.00
9189;BME280;34313;50.780;6.084;2023-01-27T13:52:54;100349.28;;;3.82;100.00
9189;BME280;34313;50.780;6.084;2023-01-27T13:55:33;100363.13;;;3.87;100.00
9189;BME280;34313;50.780;6.084;2023-01-27T14:06:27;100367.38;;;3.92;100.00
9189;BME280;34313;50.780;6.084;2023-01-27T14:11:33;100370.78;;;3.96;100.00
9189;BME280;34313;50.780;6.084;2023-01-27T14:14:18;100374.19;;;4.00;100.00
9189;BME280;34313;50.780;6.084;2023-01-27T14:26:04;100388.34;;;3.86;100.00
9189;BME280;34313;50.780;6.084;2023-01-27T14:31:07;100388.50;;;3.77;100.00
9189;BME280;34313;50.780;6.084;2023-01-27T14:33:43;100387.63;;;3.75;100.00
9189;BME280;34313;50.780;6.084;2023-01-27T14:36:18;100389.44;;;3.71;100.00
9189;BME280;34313;50.780;6.084;2023-01-27T14:38:58;100395.47;;;3.73;100.00
9189;BME280;34313;50.780;6.084;2023-01-27T14:41:44;100392.84;;;3.76;100.00
9189;BME280;34313;50.780;6.084;2023-01-27T14:44:19;100391.22;;;3.68;100.00
9189;BME280;34313;50.780;6.084;2023-01-27T14:46:54;100391.38;;;3.60;100.00
9189;BME280;34313;50.780;6.084;2023-01-27T14:52:29;100376.88;;;3.42;100.00
9189;BME280;34313;50.780;6.084;2023-01-27T15:10:15;100405.38;;;3.53;100.00
9189;BME280;34313;50.780;6.084;2023-01-27T15:12:30;100410.66;;;3.48;100.00
9189;BME280;34313;50.780;6.084;2023-01-27T15:21:16;100413.41;;;3.37;100.00
9189;BME280;34313;50.780;6.084;2023-01-27T15:26:24;100421.97;;;3.47;100.00